sensor_id;sensor_type;location;lat;lon;timestamp;P1;durP1;ratioP1;P2;durP2;ratioP2
16516;SDS011;8371;52.272;9.746;2023-04-24T00:01:55;0.30;;;0.30;;
16516;SDS011;8371;52.272;9.746;2023-04-24T00:04:21;0.10;;;0.10;;
16516;SDS011;8371;52.272;9.746;2023-04-24T00:06:47;0.20;;;0.20;;
16516;SDS011;8371;52.272;9.746;2023-04-24T00:09:14;0.33;;;0.33;;
16516;SDS011;8371;52.272;9.746;2023-04-24T00:11:41;0.30;;;0.30;;
16516;SDS011;8371;52.272;9.746;2023-04-24T00:14:06;0.40;;;0.40;;
16516;SDS011;8371;52.272;9.746;2023-04-24T00:16:32;0.20;;;0.20;;
16516;SDS011;8371;52.272;9.746;2023-04-24T00:18:58;0.23;;;0.23;;
16516;SDS011;8371;52.272;9.746;2023-04-24T00:21:26;0.50;;;0.40;;
16516;SDS011;8371;52.272;9.746;2023-04-24T00:23:52;0.40;;;0.40;;
16516;SDS011;8371;52.272;9.746;2023-04-24T00:26:18;0.30;;;0.20;;
16516;SDS011;8371;52.272;9.746;2023-04-24T00:28:44;0.20;;;0.20;;
16516;SDS011;8371;52.272;9.746;2023-04-24T00:31:09;0.53;;;0.30;;
16516;SDS011;8371;52.272;9.746;2023-04-24T00:33:35;0.50;;;0.50;;
16516;SDS011;8371;52.272;9.746;2023-04-24T00:36:01;0.33;;;0.33;;
16516;SDS011;8371;52.272;9.746;2023-04-24T00:38:27;0.30;;;0.30;;
16516;SDS011;8371;52.272;9.746;2023-04-24T00:40:53;0.27;;;0.20;;
16516;SDS011;8371;52.272;9.746;2023-04-24T00:43:19;0.20;;;0.20;;
16516;SDS011;8371;52.272;9.746;2023-04-24T00:45:45;0.40;;;0.40;;
16516;SDS011;8371;52.272;9.746;2023-04-24T00:48:11;0.23;;;0.23;;
16516;SDS011;8371;52.272;9.746;2023-04-24T00:50:37;0.27;;;0.27;;
16516;SDS011;8371;52.272;9.746;2023-04-24T00:53:04;0.10;;;0.10;;
16516;SDS011;8371;52.272;9.746;2023-04-24T00:55:30;0.10;;;0.10;;
16516;SDS011;8371;52.272;9.746;2023-04-24T00:57:57;0.33;;;0.33;;
16516;SDS011;8371;52.272;9.746;2023-04-24T01:00:23;0.30;;;0.30;;
16516;SDS011;8371;52.272;9.746;2023-04-24T01:02:49;0.30;;;0.30;;
16516;SDS011;8371;52.272;9.746;2023-04-24T01:05:17;0.40;;;0.40;;
16516;SDS011;8371;52.272;9.746;2023-04-24T01:07:44;0.40;;;0.40;;
16516;SDS011;8371;52.272;9.746;2023-04-24T01:10:13;0.30;;;0.30;;
16516;SDS011;8371;52.272;9.746;2023-04-24T01:12:40;0.20;;;0.20;;
16516;SDS011;8371;52.272;9.746;2023-04-24T01:15:06;0.30;;;0.30;;
16516;SDS011;8371;52.272;9.746;2023-04-24T01:17:33;0.33;;;0.33;;
16516;SDS011;8371;52.272;9.746;2023-04-24T01:19:59;0.27;;;0.27;;
16516;SDS011;8371;52.272;9.746;2023-04-24T01:22:26;0.20;;;0.20;;
16516;SDS011;8371;52.272;9.746;2023-04-24T01:24:52;0.20;;;0.20;;
16516;SDS011;8371;52.272;9.746;2023-04-24T01:27:18;0.30;;;0.30;;
16516;SDS011;8371;52.272;9.746;2023-04-24T01:29:45;0.20;;;0.20;;
16516;SDS011;8371;52.272;9.746;2023-04-24T01:32:10;0.20;;;0.20;;
16516;SDS011;8371;52.272;9.746;2023-04-24T01:34:37;0.10;;;0.10;;
16516;SDS011;8371;52.272;9.746;2023-04-24T01:37:03;0.40;;;0.40;;
16516;SDS011;8371;52.272;9.746;2023-04-24T01:39:30;0.23;;;0.23;;
16516;SDS011;8371;52.272;9.746;2023-04-24T01:41:56;1.07;;;0.20;;
16516;SDS011;8371;52.272;9.746;2023-04-24T01:44:22;2.10;;;0.30;;
16516;SDS011;8371;52.272;9.746;2023-04-24T01:46:48;0.20;;;0.20;;
16516;SDS011;8371;52.272;9.746;2023-04-24T01:49:14;0.30;;;0.30;;
16516;SDS011;8371;52.272;9.746;2023-04-24T01:51:40;0.30;;;0.30;;
16516;SDS011;8371;52.272;9.746;2023-04-24T01:54:06;0.27;;;0.27;;
16516;SDS011;8371;52.272;9.746;2023-04-24T01:56:33;2.17;;;0.70;;
16516;SDS011;8371;52.272;9.746;2023-04-24T01:59:01;0.30;;;0.30;;
16516;SDS011;8371;52.272;9.746;2023-04-24T02:01:33;0.27;;;0.27;;
16516;SDS011;8371;52.272;9.746;2023-04-24T02:04:01;0.30;;;0.30;;
16516;SDS011;8371;52.272;9.746;2023-04-24T02:06:27;0.20;;;0.20;;
16516;SDS011;8371;52.272;9.746;2023-04-24T02:08:53;0.30;;;0.30;;
16516;SDS011;8371;52.272;9.746;2023-04-24T02:11:18;0.30;;;0.30;;
16516;SDS011;8371;52.272;9.746;2023-04-24T02:13:44;0.30;;;0.30;;
16516;SDS011;8371;52.272;9.746;2023-04-24T02:16:10;0.20;;;0.20;;
16516;SDS011;8371;52.272;9.746;2023-04-24T02:18:36;0.20;;;0.20;;
16516;SDS011;8371;52.272;9.746;2023-04-24T02:21:02;0.17;;;0.17;;
16516;SDS011;8371;52.272;9.746;2023-04-24T02:23:28;0.27;;;0.27;;
16516;SDS011;8371;52.272;9.746;2023-04-24T02:25:53;0.47;;;0.47;;
16516;SDS011;8371;52.272;9.746;2023-04-24T02:28:19;0.30;;;0.30;;
16516;SDS011;8371;52.272;9.746;2023-04-24T02:30:45;0.47;;;0.47;;
16516;SDS011;8371;52.272;9.746;2023-04-24T02:33:11;1.07;;;0.47;;
16516;SDS011;8371;52.272;9.746;2023-04-24T02:35:37;0.23;;;0.23;;
16516;SDS011;8371;52.272;9.746;2023-04-24T02:38:03;0.40;;;0.40;;
16516;SDS011;8371;52.272;9.746;2023-04-24T02:40:29;0.33;;;0.33;;
16516;SDS011;8371;52.272;9.746;2023-04-24T02:42:55;1.03;;;0.30;;
16516;SDS011;8371;52.272;9.746;2023-04-24T02:45:21;0.40;;;0.40;;
16516;SDS011;8371;52.272;9.746;2023-04-24T02:47:47;0.30;;;0.30;;
16516;SDS011;8371;52.272;9.746;2023-04-24T02:50:12;0.20;;;0.20;;
16516;SDS011;8371;52.272;9.746;2023-04-24T02:52:38;0.40;;;0.40;;
16516;SDS011;8371;52.272;9.746;2023-04-24T02:55:04;0.20;;;0.20;;
16516;SDS011;8371;52.272;9.746;2023-04-24T02:57:30;0.20;;;0.20;;
16516;SDS011;8371;52.272;9.746;2023-04-24T02:59:56;0.20;;;0.20;;
16516;SDS011;8371;52.272;9.746;2023-04-24T03:02:22;0.23;;;0.23;;
16516;SDS011;8371;52.272;9.746;2023-04-24T03:04:47;0.40;;;0.40;;
16516;SDS011;8371;52.272;9.746;2023-04-24T03:07:13;0.63;;;0.27;;
16516;SDS011;8371;52.272;9.746;2023-04-24T03:09:41;0.20;;;0.20;;
16516;SDS011;8371;52.272;9.746;2023-04-24T03:12:07;0.27;;;0.27;;
16516;SDS011;8371;52.272;9.746;2023-04-24T03:14:33;0.20;;;0.20;;
16516;SDS011;8371;52.272;9.746;2023-04-24T03:16:58;0.20;;;0.20;;
16516;SDS011;8371;52.272;9.746;2023-04-24T03:19:25;0.20;;;0.20;;
16516;SDS011;8371;52.272;9.746;2023-04-24T03:21:50;0.30;;;0.20;;
16516;SDS011;8371;52.272;9.746;2023-04-24T03:24:16;0.20;;;0.20;;
16516;SDS011;8371;52.272;9.746;2023-04-24T03:26:42;0.30;;;0.30;;
16516;SDS011;8371;52.272;9.746;2023-04-24T03:29:08;1.90;;;0.30;;
16516;SDS011;8371;52.272;9.746;2023-04-24T03:31:33;0.10;;;0.10;;
16516;SDS011;8371;52.272;9.746;2023-04-24T03:33:59;1.17;;;0.40;;
16516;SDS011;8371;52.272;9.746;2023-04-24T03:36:25;0.40;;;0.40;;
16516;SDS011;8371;52.272;9.746;2023-04-24T03:38:51;0.30;;;0.30;;
16516;SDS011;8371;52.272;9.746;2023-04-24T03:41:17;0.30;;;0.30;;
16516;SDS011;8371;52.272;9.746;2023-04-24T03:43:43;0.27;;;0.27;;
16516;SDS011;8371;52.272;9.746;2023-04-24T03:46:08;0.27;;;0.27;;
16516;SDS011;8371;52.272;9.746;2023-04-24T03:48:34;0.30;;;0.30;;
16516;SDS011;8371;52.272;9.746;2023-04-24T03:51:00;0.30;;;0.30;;
16516;SDS011;8371;52.272;9.746;2023-04-24T03:53:26;0.30;;;0.30;;
16516;SDS011;8371;52.272;9.746;2023-04-24T03:55:52;0.30;;;0.30;;
16516;SDS011;8371;52.272;9.746;2023-04-24T03:58:18;0.23;;;0.23;;
16516;SDS011;8371;52.272;9.746;2023-04-24T04:00:44;0.20;;;0.20;;
16516;SDS011;8371;52.272;9.746;2023-04-24T04:03:11;0.40;;;0.40;;
16516;SDS011;8371;52.272;9.746;2023-04-24T04:05:39;0.27;;;0.27;;
16516;SDS011;8371;52.272;9.746;2023-04-24T04:08:05;0.30;;;0.30;;
16516;SDS011;8371;52.272;9.746;2023-04-24T04:10:30;0.50;;;0.50;;
16516;SDS011;8371;52.272;9.746;2023-04-24T04:12:56;0.30;;;0.30;;
16516;SDS011;8371;52.272;9.746;2023-04-24T04:15:22;0.40;;;0.40;;
16516;SDS011;8371;52.272;9.746;2023-04-24T04:17:47;0.40;;;0.40;;
16516;SDS011;8371;52.272;9.746;2023-04-24T04:20:13;0.20;;;0.20;;
16516;SDS011;8371;52.272;9.746;2023-04-24T04:22:39;0.27;;;0.27;;
16516;SDS011;8371;52.272;9.746;2023-04-24T04:25:05;0.10;;;0.10;;
16516;SDS011;8371;52.272;9.746;2023-04-24T04:27:32;0.20;;;0.20;;
16516;SDS011;8371;52.272;9.746;2023-04-24T04:29:58;0.20;;;0.20;;
16516;SDS011;8371;52.272;9.746;2023-04-24T04:32:26;0.20;;;0.20;;
16516;SDS011;8371;52.272;9.746;2023-04-24T04:34:52;0.20;;;0.20;;
16516;SDS011;8371;52.272;9.746;2023-04-24T04:37:19;0.30;;;0.30;;
16516;SDS011;8371;52.272;9.746;2023-04-24T04:39:44;0.30;;;0.30;;
16516;SDS011;8371;52.272;9.746;2023-04-24T04:42:10;0.60;;;0.30;;
16516;SDS011;8371;52.272;9.746;2023-04-24T04:44:36;0.30;;;0.30;;
16516;SDS011;8371;52.272;9.746;2023-04-24T04:47:01;0.30;;;0.30;;
16516;SDS011;8371;52.272;9.746;2023-04-24T04:49:29;0.47;;;0.40;;
16516;SDS011;8371;52.272;9.746;2023-04-24T04:51:56;0.60;;;0.60;;
16516;SDS011;8371;52.272;9.746;2023-04-24T04:54:21;0.20;;;0.20;;
16516;SDS011;8371;52.272;9.746;2023-04-24T04:56:49;0.40;;;0.40;;
16516;SDS011;8371;52.272;9.746;2023-04-24T04:59:15;0.40;;;0.40;;
16516;SDS011;8371;52.272;9.746;2023-04-24T05:01:41;0.40;;;0.40;;
16516;SDS011;8371;52.272;9.746;2023-04-24T05:04:07;0.30;;;0.30;;
16516;SDS011;8371;52.272;9.746;2023-04-24T05:06:33;0.40;;;0.40;;
16516;SDS011;8371;52.272;9.746;2023-04-24T05:08:58;0.20;;;0.20;;
16516;SDS011;8371;52.272;9.746;2023-04-24T05:11:24;0.50;;;0.40;;
16516;SDS011;8371;52.272;9.746;2023-04-24T05:13:50;0.60;;;0.60;;
16516;SDS011;8371;52.272;9.746;2023-04-24T05:16:15;0.50;;;0.50;;
16516;SDS011;8371;52.272;9.746;2023-04-24T05:18:41;0.40;;;0.40;;
16516;SDS011;8371;52.272;9.746;2023-04-24T05:21:07;0.43;;;0.43;;
16516;SDS011;8371;52.272;9.746;2023-04-24T05:23:32;0.30;;;0.30;;
16516;SDS011;8371;52.272;9.746;2023-04-24T05:25:58;0.20;;;0.20;;
16516;SDS011;8371;52.272;9.746;2023-04-24T05:28:24;0.20;;;0.20;;
16516;SDS011;8371;52.272;9.746;2023-04-24T05:30:51;0.30;;;0.30;;
16516;SDS011;8371;52.272;9.746;2023-04-24T05:33:17;0.30;;;0.30;;
16516;SDS011;8371;52.272;9.746;2023-04-24T05:35:42;0.20;;;0.20;;
16516;SDS011;8371;52.272;9.746;2023-04-24T05:38:12;0.20;;;0.20;;
16516;SDS011;8371;52.272;9.746;2023-04-24T05:40:38;0.30;;;0.30;;
16516;SDS011;8371;52.272;9.746;2023-04-24T05:43:04;0.43;;;0.40;;
16516;SDS011;8371;52.272;9.746;2023-04-24T05:45:30;0.70;;;0.40;;
16516;SDS011;8371;52.272;9.746;2023-04-24T05:47:56;0.30;;;0.30;;
16516;SDS011;8371;52.272;9.746;2023-04-24T05:50:21;0.20;;;0.20;;
16516;SDS011;8371;52.272;9.746;2023-04-24T05:52:47;0.30;;;0.30;;
16516;SDS011;8371;52.272;9.746;2023-04-24T05:55:13;0.50;;;0.50;;
16516;SDS011;8371;52.272;9.746;2023-04-24T05:57:38;0.60;;;0.60;;
16516;SDS011;8371;52.272;9.746;2023-04-24T06:00:06;0.50;;;0.50;;
16516;SDS011;8371;52.272;9.746;2023-04-24T06:02:33;0.50;;;0.50;;
16516;SDS011;8371;52.272;9.746;2023-04-24T06:04:59;0.50;;;0.50;;
16516;SDS011;8371;52.272;9.746;2023-04-24T06:07:25;0.40;;;0.40;;
16516;SDS011;8371;52.272;9.746;2023-04-24T06:09:54;0.60;;;0.60;;
16516;SDS011;8371;52.272;9.746;2023-04-24T06:12:19;0.40;;;0.40;;
16516;SDS011;8371;52.272;9.746;2023-04-24T06:14:45;0.30;;;0.30;;
16516;SDS011;8371;52.272;9.746;2023-04-24T06:17:11;0.70;;;0.70;;
16516;SDS011;8371;52.272;9.746;2023-04-24T06:19:38;0.40;;;0.40;;
16516;SDS011;8371;52.272;9.746;2023-04-24T06:22:03;0.50;;;0.50;;
16516;SDS011;8371;52.272;9.746;2023-04-24T06:24:29;0.40;;;0.40;;
16516;SDS011;8371;52.272;9.746;2023-04-24T06:26:55;1.50;;;0.50;;
16516;SDS011;8371;52.272;9.746;2023-04-24T06:29:22;0.40;;;0.40;;
16516;SDS011;8371;52.272;9.746;2023-04-24T06:31:48;0.47;;;0.47;;
16516;SDS011;8371;52.272;9.746;2023-04-24T06:34:14;0.57;;;0.57;;
16516;SDS011;8371;52.272;9.746;2023-04-24T06:36:39;0.50;;;0.50;;
16516;SDS011;8371;52.272;9.746;2023-04-24T06:39:05;0.60;;;0.60;;
16516;SDS011;8371;52.272;9.746;2023-04-24T06:41:31;0.73;;;0.73;;
16516;SDS011;8371;52.272;9.746;2023-04-24T06:43:56;0.60;;;0.60;;
16516;SDS011;8371;52.272;9.746;2023-04-24T06:46:22;0.83;;;0.83;;
16516;SDS011;8371;52.272;9.746;2023-04-24T06:48:50;0.80;;;0.80;;
16516;SDS011;8371;52.272;9.746;2023-04-24T06:51:15;0.60;;;0.60;;
16516;SDS011;8371;52.272;9.746;2023-04-24T06:53:43;0.80;;;0.80;;
16516;SDS011;8371;52.272;9.746;2023-04-24T06:56:09;0.90;;;0.90;;
16516;SDS011;8371;52.272;9.746;2023-04-24T06:58:34;1.30;;;1.30;;
16516;SDS011;8371;52.272;9.746;2023-04-24T07:01:00;1.80;;;1.70;;
16516;SDS011;8371;52.272;9.746;2023-04-24T07:03:26;2.10;;;2.00;;
16516;SDS011;8371;52.272;9.746;2023-04-24T07:05:51;1.67;;;1.67;;
16516;SDS011;8371;52.272;9.746;2023-04-24T07:08:18;2.10;;;2.00;;
16516;SDS011;8371;52.272;9.746;2023-04-24T07:10:45;1.93;;;1.93;;
16516;SDS011;8371;52.272;9.746;2023-04-24T07:13:11;1.97;;;1.87;;
16516;SDS011;8371;52.272;9.746;2023-04-24T07:15:37;2.87;;;2.77;;
16516;SDS011;8371;52.272;9.746;2023-04-24T07:18:02;2.50;;;2.40;;
16516;SDS011;8371;52.272;9.746;2023-04-24T07:20:28;2.23;;;2.13;;
16516;SDS011;8371;52.272;9.746;2023-04-24T07:22:54;2.10;;;2.10;;
16516;SDS011;8371;52.272;9.746;2023-04-24T07:25:20;2.57;;;2.47;;
16516;SDS011;8371;52.272;9.746;2023-04-24T07:27:45;2.53;;;2.47;;
16516;SDS011;8371;52.272;9.746;2023-04-24T07:30:11;2.70;;;2.60;;
16516;SDS011;8371;52.272;9.746;2023-04-24T07:32:37;2.60;;;2.60;;
16516;SDS011;8371;52.272;9.746;2023-04-24T07:35:03;2.93;;;2.83;;
16516;SDS011;8371;52.272;9.746;2023-04-24T07:37:29;3.30;;;3.20;;
16516;SDS011;8371;52.272;9.746;2023-04-24T07:39:55;2.90;;;2.80;;
16516;SDS011;8371;52.272;9.746;2023-04-24T07:42:26;2.83;;;2.63;;
16516;SDS011;8371;52.272;9.746;2023-04-24T07:44:49;2.63;;;2.50;;
16516;SDS011;8371;52.272;9.746;2023-04-24T07:47:16;2.27;;;2.17;;
16516;SDS011;8371;52.272;9.746;2023-04-24T07:49:42;2.53;;;2.43;;
16516;SDS011;8371;52.272;9.746;2023-04-24T07:52:08;2.33;;;2.20;;
16516;SDS011;8371;52.272;9.746;2023-04-24T07:54:33;2.60;;;2.50;;
16516;SDS011;8371;52.272;9.746;2023-04-24T07:56:59;2.10;;;2.00;;
16516;SDS011;8371;52.272;9.746;2023-04-24T07:59:26;2.53;;;2.43;;
16516;SDS011;8371;52.272;9.746;2023-04-24T08:01:52;2.90;;;2.80;;
16516;SDS011;8371;52.272;9.746;2023-04-24T08:04:17;2.80;;;2.70;;
16516;SDS011;8371;52.272;9.746;2023-04-24T08:06:43;3.17;;;3.07;;
16516;SDS011;8371;52.272;9.746;2023-04-24T08:09:09;2.47;;;2.47;;
16516;SDS011;8371;52.272;9.746;2023-04-24T08:11:35;2.57;;;2.50;;
16516;SDS011;8371;52.272;9.746;2023-04-24T08:14:00;2.40;;;2.30;;
16516;SDS011;8371;52.272;9.746;2023-04-24T08:16:27;2.60;;;2.50;;
16516;SDS011;8371;52.272;9.746;2023-04-24T08:18:54;2.67;;;2.57;;
16516;SDS011;8371;52.272;9.746;2023-04-24T08:21:20;3.23;;;3.13;;
16516;SDS011;8371;52.272;9.746;2023-04-24T08:23:46;2.83;;;2.63;;
16516;SDS011;8371;52.272;9.746;2023-04-24T08:26:12;2.63;;;2.53;;
16516;SDS011;8371;52.272;9.746;2023-04-24T08:28:40;2.77;;;2.67;;
16516;SDS011;8371;52.272;9.746;2023-04-24T08:31:06;3.03;;;2.93;;
16516;SDS011;8371;52.272;9.746;2023-04-24T08:33:35;2.67;;;2.57;;
16516;SDS011;8371;52.272;9.746;2023-04-24T08:36:04;2.70;;;2.60;;
16516;SDS011;8371;52.272;9.746;2023-04-24T08:38:31;2.93;;;2.83;;
16516;SDS011;8371;52.272;9.746;2023-04-24T08:40:58;2.67;;;2.57;;
16516;SDS011;8371;52.272;9.746;2023-04-24T08:43:25;2.73;;;2.60;;
16516;SDS011;8371;52.272;9.746;2023-04-24T08:45:51;2.30;;;2.10;;
16516;SDS011;8371;52.272;9.746;2023-04-24T08:48:18;2.50;;;2.40;;
16516;SDS011;8371;52.272;9.746;2023-04-24T08:50:44;2.20;;;2.20;;
16516;SDS011;8371;52.272;9.746;2023-04-24T08:53:10;2.57;;;2.57;;
16516;SDS011;8371;52.272;9.746;2023-04-24T08:55:37;2.20;;;2.20;;
16516;SDS011;8371;52.272;9.746;2023-04-24T08:58:03;2.07;;;2.07;;
16516;SDS011;8371;52.272;9.746;2023-04-24T09:00:29;2.70;;;2.60;;
16516;SDS011;8371;52.272;9.746;2023-04-24T09:02:55;2.47;;;2.37;;
16516;SDS011;8371;52.272;9.746;2023-04-24T09:05:22;2.20;;;2.20;;
16516;SDS011;8371;52.272;9.746;2023-04-24T09:07:53;2.40;;;2.30;;
16516;SDS011;8371;52.272;9.746;2023-04-24T09:10:20;2.07;;;2.00;;
16516;SDS011;8371;52.272;9.746;2023-04-24T09:12:47;1.60;;;1.60;;
16516;SDS011;8371;52.272;9.746;2023-04-24T09:15:14;1.70;;;1.60;;
16516;SDS011;8371;52.272;9.746;2023-04-24T09:17:40;1.50;;;1.50;;
16516;SDS011;8371;52.272;9.746;2023-04-24T09:20:08;1.13;;;1.13;;
16516;SDS011;8371;52.272;9.746;2023-04-24T09:22:34;1.60;;;1.60;;
16516;SDS011;8371;52.272;9.746;2023-04-24T09:25:03;1.30;;;1.30;;
16516;SDS011;8371;52.272;9.746;2023-04-24T09:27:32;1.33;;;1.33;;
16516;SDS011;8371;52.272;9.746;2023-04-24T09:29:58;1.33;;;1.33;;
16516;SDS011;8371;52.272;9.746;2023-04-24T09:32:25;1.47;;;1.47;;
16516;SDS011;8371;52.272;9.746;2023-04-24T09:37:43;1.30;;;1.30;;
16516;SDS011;8371;52.272;9.746;2023-04-24T09:40:13;1.37;;;1.37;;
16516;SDS011;8371;52.272;9.746;2023-04-24T09:42:43;1.20;;;1.20;;
16516;SDS011;8371;52.272;9.746;2023-04-24T09:45:16;1.20;;;1.20;;
16516;SDS011;8371;52.272;9.746;2023-04-24T09:47:42;1.50;;;1.50;;
16516;SDS011;8371;52.272;9.746;2023-04-24T09:50:15;1.50;;;1.50;;
16516;SDS011;8371;52.272;9.746;2023-04-24T09:52:42;1.50;;;1.50;;
16516;SDS011;8371;52.272;9.746;2023-04-24T09:55:21;1.47;;;1.47;;
16516;SDS011;8371;52.272;9.746;2023-04-24T09:57:47;1.13;;;1.13;;
16516;SDS011;8371;52.272;9.746;2023-04-24T10:00:27;1.10;;;1.10;;
16516;SDS011;8371;52.272;9.746;2023-04-24T10:02:59;1.30;;;1.30;;
16516;SDS011;8371;52.272;9.746;2023-04-24T10:05:24;1.03;;;1.03;;
16516;SDS011;8371;52.272;9.746;2023-04-24T10:07:58;1.03;;;1.03;;
16516;SDS011;8371;52.272;9.746;2023-04-24T10:10:32;1.17;;;1.17;;
16516;SDS011;8371;52.272;9.746;2023-04-24T10:12:59;1.43;;;1.43;;
16516;SDS011;8371;52.272;9.746;2023-04-24T10:15:26;1.03;;;1.03;;
16516;SDS011;8371;52.272;9.746;2023-04-24T10:17:53;1.00;;;1.00;;
16516;SDS011;8371;52.272;9.746;2023-04-24T10:20:22;2.33;;;1.00;;
16516;SDS011;8371;52.272;9.746;2023-04-24T10:22:52;1.30;;;1.30;;
16516;SDS011;8371;52.272;9.746;2023-04-24T10:25:22;0.93;;;0.93;;
16516;SDS011;8371;52.272;9.746;2023-04-24T10:27:53;1.20;;;1.20;;
16516;SDS011;8371;52.272;9.746;2023-04-24T10:30:21;1.03;;;1.03;;
16516;SDS011;8371;52.272;9.746;2023-04-24T10:32:47;1.53;;;1.10;;
16516;SDS011;8371;52.272;9.746;2023-04-24T10:35:13;0.80;;;0.80;;
16516;SDS011;8371;52.272;9.746;2023-04-24T10:37:42;0.80;;;0.80;;
16516;SDS011;8371;52.272;9.746;2023-04-24T10:40:11;0.77;;;0.77;;
16516;SDS011;8371;52.272;9.746;2023-04-24T10:42:39;0.70;;;0.70;;
16516;SDS011;8371;52.272;9.746;2023-04-24T10:45:07;0.87;;;0.87;;
16516;SDS011;8371;52.272;9.746;2023-04-24T10:47:40;0.57;;;0.57;;
16516;SDS011;8371;52.272;9.746;2023-04-24T10:50:09;0.80;;;0.80;;
16516;SDS011;8371;52.272;9.746;2023-04-24T10:52:44;0.77;;;0.77;;
16516;SDS011;8371;52.272;9.746;2023-04-24T10:55:13;0.70;;;0.70;;
16516;SDS011;8371;52.272;9.746;2023-04-24T10:57:48;0.80;;;0.80;;
16516;SDS011;8371;52.272;9.746;2023-04-24T11:00:27;0.77;;;0.70;;
16516;SDS011;8371;52.272;9.746;2023-04-24T11:02:52;0.67;;;0.67;;
16516;SDS011;8371;52.272;9.746;2023-04-24T11:05:19;0.90;;;0.90;;
16516;SDS011;8371;52.272;9.746;2023-04-24T11:10:38;0.60;;;0.60;;
16516;SDS011;8371;52.272;9.746;2023-04-24T11:13:06;0.60;;;0.60;;
16516;SDS011;8371;52.272;9.746;2023-04-24T11:15:32;0.50;;;0.50;;
16516;SDS011;8371;52.272;9.746;2023-04-24T11:17:58;0.80;;;0.80;;
16516;SDS011;8371;52.272;9.746;2023-04-24T11:20:23;0.60;;;0.60;;
16516;SDS011;8371;52.272;9.746;2023-04-24T11:22:52;0.73;;;0.73;;
16516;SDS011;8371;52.272;9.746;2023-04-24T11:25:20;0.60;;;0.60;;
16516;SDS011;8371;52.272;9.746;2023-04-24T11:27:48;0.60;;;0.60;;
16516;SDS011;8371;52.272;9.746;2023-04-24T11:30:19;0.53;;;0.53;;
16516;SDS011;8371;52.272;9.746;2023-04-24T11:32:50;0.77;;;0.77;;
16516;SDS011;8371;52.272;9.746;2023-04-24T11:35:17;0.63;;;0.63;;
16516;SDS011;8371;52.272;9.746;2023-04-24T11:37:46;0.60;;;0.60;;
16516;SDS011;8371;52.272;9.746;2023-04-24T11:40:16;0.50;;;0.50;;
16516;SDS011;8371;52.272;9.746;2023-04-24T11:42:49;0.40;;;0.40;;
16516;SDS011;8371;52.272;9.746;2023-04-24T11:45:17;0.33;;;0.33;;
16516;SDS011;8371;52.272;9.746;2023-04-24T11:47:45;0.53;;;0.30;;
16516;SDS011;8371;52.272;9.746;2023-04-24T11:50:13;0.30;;;0.30;;
16516;SDS011;8371;52.272;9.746;2023-04-24T11:52:40;0.53;;;0.53;;
16516;SDS011;8371;52.272;9.746;2023-04-24T11:57:45;0.40;;;0.40;;
16516;SDS011;8371;52.272;9.746;2023-04-24T12:00:15;0.40;;;0.40;;
16516;SDS011;8371;52.272;9.746;2023-04-24T12:02:43;0.33;;;0.33;;
16516;SDS011;8371;52.272;9.746;2023-04-24T12:05:18;1.17;;;0.30;;
16516;SDS011;8371;52.272;9.746;2023-04-24T12:07:51;0.30;;;0.30;;
16516;SDS011;8371;52.272;9.746;2023-04-24T12:10:26;2.90;;;0.40;;
16516;SDS011;8371;52.272;9.746;2023-04-24T12:12:50;0.20;;;0.20;;
16516;SDS011;8371;52.272;9.746;2023-04-24T12:15:17;0.20;;;0.20;;
16516;SDS011;8371;52.272;9.746;2023-04-24T12:17:45;0.20;;;0.20;;
16516;SDS011;8371;52.272;9.746;2023-04-24T12:20:11;0.30;;;0.30;;
16516;SDS011;8371;52.272;9.746;2023-04-24T12:22:50;0.43;;;0.43;;
16516;SDS011;8371;52.272;9.746;2023-04-24T12:25:20;0.40;;;0.40;;
16516;SDS011;8371;52.272;9.746;2023-04-24T12:27:52;0.20;;;0.20;;
16516;SDS011;8371;52.272;9.746;2023-04-24T12:30:21;0.20;;;0.20;;
16516;SDS011;8371;52.272;9.746;2023-04-24T12:32:50;0.40;;;0.40;;
16516;SDS011;8371;52.272;9.746;2023-04-24T12:35:19;0.20;;;0.20;;
16516;SDS011;8371;52.272;9.746;2023-04-24T12:37:46;0.20;;;0.20;;
16516;SDS011;8371;52.272;9.746;2023-04-24T12:40:12;0.20;;;0.20;;
16516;SDS011;8371;52.272;9.746;2023-04-24T12:42:46;0.20;;;0.20;;
16516;SDS011;8371;52.272;9.746;2023-04-24T12:45:11;0.20;;;0.20;;
16516;SDS011;8371;52.272;9.746;2023-04-24T12:47:38;0.40;;;0.40;;
16516;SDS011;8371;52.272;9.746;2023-04-24T12:50:05;0.27;;;0.27;;
16516;SDS011;8371;52.272;9.746;2023-04-24T12:52:31;0.50;;;0.50;;
16516;SDS011;8371;52.272;9.746;2023-04-24T12:54:58;0.77;;;0.40;;
16516;SDS011;8371;52.272;9.746;2023-04-24T12:57:25;2.00;;;0.53;;
16516;SDS011;8371;52.272;9.746;2023-04-24T12:59:54;0.50;;;0.50;;
16516;SDS011;8371;52.272;9.746;2023-04-24T13:02:22;0.60;;;0.60;;
16516;SDS011;8371;52.272;9.746;2023-04-24T13:04:48;0.50;;;0.50;;
16516;SDS011;8371;52.272;9.746;2023-04-24T13:07:15;0.60;;;0.60;;
16516;SDS011;8371;52.272;9.746;2023-04-24T13:09:42;0.50;;;0.50;;
16516;SDS011;8371;52.272;9.746;2023-04-24T13:12:09;0.60;;;0.60;;
16516;SDS011;8371;52.272;9.746;2023-04-24T13:14:35;0.40;;;0.40;;
16516;SDS011;8371;52.272;9.746;2023-04-24T13:17:01;0.30;;;0.30;;
16516;SDS011;8371;52.272;9.746;2023-04-24T13:19:28;0.50;;;0.50;;
16516;SDS011;8371;52.272;9.746;2023-04-24T13:21:54;0.30;;;0.30;;
16516;SDS011;8371;52.272;9.746;2023-04-24T13:24:22;0.23;;;0.23;;
16516;SDS011;8371;52.272;9.746;2023-04-24T13:26:54;0.27;;;0.27;;
16516;SDS011;8371;52.272;9.746;2023-04-24T13:29:21;0.20;;;0.20;;
16516;SDS011;8371;52.272;9.746;2023-04-24T13:31:49;0.53;;;0.30;;
16516;SDS011;8371;52.272;9.746;2023-04-24T13:34:16;0.10;;;0.10;;
16516;SDS011;8371;52.272;9.746;2023-04-24T13:36:43;1.07;;;0.30;;
16516;SDS011;8371;52.272;9.746;2023-04-24T13:39:09;0.10;;;0.10;;
16516;SDS011;8371;52.272;9.746;2023-04-24T13:41:35;0.10;;;0.10;;
16516;SDS011;8371;52.272;9.746;2023-04-24T13:44:01;0.10;;;0.10;;
16516;SDS011;8371;52.272;9.746;2023-04-24T13:46:28;0.10;;;0.10;;
16516;SDS011;8371;52.272;9.746;2023-04-24T13:48:54;0.10;;;0.10;;
16516;SDS011;8371;52.272;9.746;2023-04-24T13:51:20;0.20;;;0.20;;
16516;SDS011;8371;52.272;9.746;2023-04-24T13:53:45;0.10;;;0.10;;
16516;SDS011;8371;52.272;9.746;2023-04-24T13:56:11;0.20;;;0.20;;
16516;SDS011;8371;52.272;9.746;2023-04-24T13:58:37;0.17;;;0.17;;
16516;SDS011;8371;52.272;9.746;2023-04-24T14:01:04;0.00;;;0.00;;
16516;SDS011;8371;52.272;9.746;2023-04-24T14:03:30;0.00;;;0.00;;
16516;SDS011;8371;52.272;9.746;2023-04-24T14:05:56;0.00;;;0.00;;
16516;SDS011;8371;52.272;9.746;2023-04-24T14:08:21;0.10;;;0.10;;
16516;SDS011;8371;52.272;9.746;2023-04-24T14:10:47;0.07;;;0.07;;
16516;SDS011;8371;52.272;9.746;2023-04-24T14:13:13;0.03;;;0.03;;
16516;SDS011;8371;52.272;9.746;2023-04-24T14:15:39;0.50;;;0.20;;
16516;SDS011;8371;52.272;9.746;2023-04-24T14:18:04;0.20;;;0.20;;
16516;SDS011;8371;52.272;9.746;2023-04-24T14:20:30;0.93;;;0.20;;
16516;SDS011;8371;52.272;9.746;2023-04-24T14:22:56;0.67;;;0.30;;
16516;SDS011;8371;52.272;9.746;2023-04-24T14:25:24;0.10;;;0.10;;
16516;SDS011;8371;52.272;9.746;2023-04-24T14:27:50;0.20;;;0.20;;
16516;SDS011;8371;52.272;9.746;2023-04-24T14:30:16;0.20;;;0.20;;
16516;SDS011;8371;52.272;9.746;2023-04-24T14:32:43;0.30;;;0.30;;
16516;SDS011;8371;52.272;9.746;2023-04-24T14:35:08;0.30;;;0.30;;
16516;SDS011;8371;52.272;9.746;2023-04-24T14:37:34;0.27;;;0.27;;
16516;SDS011;8371;52.272;9.746;2023-04-24T14:40:01;0.33;;;0.33;;
16516;SDS011;8371;52.272;9.746;2023-04-24T14:42:26;0.50;;;0.50;;
16516;SDS011;8371;52.272;9.746;2023-04-24T14:44:54;0.60;;;0.60;;
16516;SDS011;8371;52.272;9.746;2023-04-24T14:47:20;0.33;;;0.33;;
16516;SDS011;8371;52.272;9.746;2023-04-24T14:49:47;0.70;;;0.70;;
16516;SDS011;8371;52.272;9.746;2023-04-24T14:52:14;0.70;;;0.70;;
16516;SDS011;8371;52.272;9.746;2023-04-24T14:54:39;0.90;;;0.90;;
16516;SDS011;8371;52.272;9.746;2023-04-24T14:57:05;0.60;;;0.60;;
16516;SDS011;8371;52.272;9.746;2023-04-24T14:59:31;0.80;;;0.80;;
16516;SDS011;8371;52.272;9.746;2023-04-24T15:01:57;0.57;;;0.57;;
16516;SDS011;8371;52.272;9.746;2023-04-24T15:04:23;0.90;;;0.90;;
16516;SDS011;8371;52.272;9.746;2023-04-24T15:06:51;0.87;;;0.87;;